»·PEaware :: N129DQ KBAB-KSNS

N129DQ :: KBAB-KSNS

FLIGHT INFORMATION

Flight Status: Arrived
Operator: Privately registered:
United States
More flights under this callsign
Pilot: Doug M. (13043)
Aircraft: MOONEY M-20K/M ENCORE BRAVO
(M20T)
More flights by this aircraft type
Origin: KBAB Beale AFB
United States
Destination: KSNS Salinas Mun
United States
More flights between these airports :: More routes between these airports
Route: +MYV SAC V334 SJC
File this flight plan on PilotEdge
Remarks:
Altitude:
(Current/Filed)
12,000ft
Speed:
(Current/Filed)
180kts
Departed: 07-Sep-18 08:52 AM
Arrived: 07-Sep-18 09:49 AM
Distance/Time
Traveled:
149nm/0:57
Distance/Time
To Go:
Arrived

Flight Plot

Page will automatically refresh every two minutes.


Map Options




Map Legend


Flown Route
Filed Route
Departure Airport
Arrival Airport
Navaid (VOR, NDB)
Fix

Horizontal Profiles

Position Reports

Time Latitude Longitude Heading Altitude Ground
Speed
07-Sep-18 08:40 39.138803 -121.429942 244 133ft 0kts
07-Sep-18 08:41 39.138803 -121.429942 244 133ft 0kts
07-Sep-18 08:42 39.138803 -121.429942 244 133ft 0kts
07-Sep-18 08:43 39.138803 -121.429942 244 133ft 0kts
07-Sep-18 08:44 39.138803 -121.429942 244 133ft 0kts
07-Sep-18 08:45 39.138803 -121.429942 244 133ft 0kts
07-Sep-18 08:46 39.138803 -121.429942 244 133ft 0kts
07-Sep-18 08:47 39.138137 -121.430501 231 130ft 16kts
07-Sep-18 08:47 39.142109 -121.433848 343 112ft 35kts
07-Sep-18 08:49 39.151909 -121.438037 340 117ft 24kts
07-Sep-18 08:50 39.151826 -121.442165 249 111ft 0kts
07-Sep-18 08:51 39.151826 -121.442165 249 111ft 0kts
07-Sep-18 08:51 39.151826 -121.442165 249 111ft 0kts
07-Sep-18 08:53 39.151826 -121.442165 249 111ft 0kts
07-Sep-18 08:53 39.145730 -121.440775 161 100ft 92kts
07-Sep-18 08:54 39.113344 -121.435883 214 895ft 135kts
07-Sep-18 08:55 39.106221 -121.484442 263 1916ft 147kts
07-Sep-18 08:56 39.101539 -121.538054 264 2922ft 154kts
07-Sep-18 08:57 39.074723 -121.569787 183 3910ft 159kts
07-Sep-18 08:58 39.030099 -121.570085 180 4911ft 162kts
07-Sep-18 08:59 38.986231 -121.568944 180 6067ft 154kts
07-Sep-18 09:00 38.944699 -121.567635 180 7259ft 145kts
07-Sep-18 09:01 38.906335 -121.566419 180 8448ft 132kts
07-Sep-18 09:02 38.869898 -121.565249 180 9445ft 136kts
07-Sep-18 09:03 38.830180 -121.563962 180 10255ft 149kts
07-Sep-18 09:04 38.788180 -121.562591 180 11053ft 155kts
07-Sep-18 09:05 38.744511 -121.561171 181 11853ft 159kts
07-Sep-18 09:06 38.695876 -121.559619 180 11992ft 193kts
07-Sep-18 09:07 38.639840 -121.557797 180 11990ft 207kts
07-Sep-18 09:08 38.581563 -121.555900 180 11990ft 211kts
07-Sep-18 09:09 38.522682 -121.553987 180 12007ft 212kts
07-Sep-18 09:10 38.463568 -121.552070 180 12008ft 212kts
07-Sep-18 09:11 38.405822 -121.563291 195 12008ft 211kts
07-Sep-18 09:12 38.348781 -121.581033 195 12008ft 211kts
07-Sep-18 09:13 38.291805 -121.598757 195 12008ft 211kts
07-Sep-18 09:14 38.234629 -121.616519 195 12000ft 212kts
07-Sep-18 09:15 38.177339 -121.634285 195 11999ft 213kts
07-Sep-18 09:16 38.128218 -121.649498 195 12007ft 212kts
07-Sep-18 09:17 38.071202 -121.667123 194 12000ft 213kts
07-Sep-18 09:18 38.020233 -121.682869 194 12009ft 213kts
07-Sep-18 09:20 37.964144 -121.700166 194 12009ft 213kts
07-Sep-18 09:21 37.907935 -121.717479 194 12008ft 204kts
07-Sep-18 09:22 37.853649 -121.734165 194 12009ft 202kts
07-Sep-18 09:23 37.799119 -121.750897 194 12010ft 201kts
07-Sep-18 09:24 37.745152 -121.767431 194 12027ft 200kts
07-Sep-18 09:25 37.691049 -121.783981 195 12027ft 201kts
07-Sep-18 09:26 37.636625 -121.800606 195 12027ft 201kts
07-Sep-18 09:27 37.584129 -121.822591 206 12027ft 200kts
07-Sep-18 09:28 37.533832 -121.851921 206 12043ft 199kts
07-Sep-18 09:29 37.483332 -121.881324 206 12038ft 200kts
07-Sep-18 09:30 37.430317 -121.895795 173 12009ft 204kts
07-Sep-18 09:31 37.374927 -121.883999 168 11537ft 203kts
07-Sep-18 09:32 37.320471 -121.868705 168 10794ft 199kts
07-Sep-18 09:33 37.266907 -121.853820 168 9661ft 196kts
07-Sep-18 09:34 37.214127 -121.839163 168 8546ft 195kts
07-Sep-18 09:35 37.161522 -121.824577 168 7473ft 193kts
07-Sep-18 09:36 37.109961 -121.810327 168 6453ft 189kts
07-Sep-18 09:37 37.060911 -121.796791 168 6017ft 170kts
07-Sep-18 09:38 37.015614 -121.784290 168 5913ft 165kts
07-Sep-18 09:39 36.971254 -121.772094 168 5059ft 163kts
07-Sep-18 09:40 36.927773 -121.760115 167 4092ft 160kts
07-Sep-18 09:41 36.891571 -121.750159 167 3278ft 157kts
07-Sep-18 09:42 36.853358 -121.739608 167 3210ft 149kts
07-Sep-18 09:43 36.813866 -121.723514 148 3199ft 152kts
07-Sep-18 09:44 36.778782 -121.696103 147 2669ft 177kts
07-Sep-18 09:45 36.748232 -121.672189 147 1952ft 122kts
07-Sep-18 09:46 36.729122 -121.657243 148 1522ft 106kts
07-Sep-18 09:47 36.713780 -121.645273 147 1168ft 105kts
07-Sep-18 09:48 36.703123 -121.636951 147 923ft 104kts
07-Sep-18 09:49 36.681958 -121.620416 148 434ft 78kts
07-Sep-18 09:50 36.665064 -121.607242 149 72ft 43kts
07-Sep-18 09:51 36.660873 -121.604636 281 71ft 20kts
07-Sep-18 09:52 36.660776 -121.608832 6 72ft 0kts

Navigation Log

Ident Type
Flight plan parsing failed, navigation log unavailable